sensor_id;sensor_type;location;lat;lon;timestamp;P1;durP1;ratioP1;P2;durP2;ratioP2
1206;SDS011;593;53.184;8.216;2023-08-24T00:00:04;3.40;;;2.73;;
1206;SDS011;593;53.184;8.216;2023-08-24T00:02:30;2.80;;;2.60;;
1206;SDS011;593;53.184;8.216;2023-08-24T00:04:56;2.03;;;1.80;;
1206;SDS011;593;53.184;8.216;2023-08-24T00:07:21;2.20;;;2.03;;
1206;SDS011;593;53.184;8.216;2023-08-24T00:09:47;2.93;;;2.37;;
1206;SDS011;593;53.184;8.216;2023-08-24T00:12:13;2.00;;;1.90;;
1206;SDS011;593;53.184;8.216;2023-08-24T00:14:38;4.50;;;2.20;;
1206;SDS011;593;53.184;8.216;2023-08-24T00:17:03;2.30;;;2.10;;
1206;SDS011;593;53.184;8.216;2023-08-24T00:19:29;2.00;;;1.90;;
1206;SDS011;593;53.184;8.216;2023-08-24T00:21:55;3.73;;;2.30;;
1206;SDS011;593;53.184;8.216;2023-08-24T00:24:20;2.53;;;1.90;;
1206;SDS011;593;53.184;8.216;2023-08-24T00:26:45;4.57;;;2.63;;
1206;SDS011;593;53.184;8.216;2023-08-24T00:29:11;4.93;;;2.43;;
1206;SDS011;593;53.184;8.216;2023-08-24T00:31:36;2.80;;;2.33;;
1206;SDS011;593;53.184;8.216;2023-08-24T00:34:01;4.03;;;2.17;;
1206;SDS011;593;53.184;8.216;2023-08-24T00:36:27;2.27;;;2.07;;
1206;SDS011;593;53.184;8.216;2023-08-24T00:38:52;2.00;;;1.90;;
1206;SDS011;593;53.184;8.216;2023-08-24T00:41:18;2.20;;;2.00;;
1206;SDS011;593;53.184;8.216;2023-08-24T00:43:46;4.83;;;2.30;;
1206;SDS011;593;53.184;8.216;2023-08-24T00:46:11;2.47;;;2.23;;
1206;SDS011;593;53.184;8.216;2023-08-24T00:48:37;2.30;;;2.20;;
1206;SDS011;593;53.184;8.216;2023-08-24T00:51:02;2.30;;;2.10;;
1206;SDS011;593;53.184;8.216;2023-08-24T00:53:29;3.20;;;2.63;;
1206;SDS011;593;53.184;8.216;2023-08-24T00:55:56;2.20;;;1.83;;
1206;SDS011;593;53.184;8.216;2023-08-24T00:58:22;2.77;;;2.57;;
1206;SDS011;593;53.184;8.216;2023-08-24T01:00:52;2.50;;;2.30;;
1206;SDS011;593;53.184;8.216;2023-08-24T01:03:18;2.40;;;2.20;;
1206;SDS011;593;53.184;8.216;2023-08-24T01:05:46;3.60;;;2.83;;
1206;SDS011;593;53.184;8.216;2023-08-24T01:08:12;1.87;;;1.77;;
1206;SDS011;593;53.184;8.216;2023-08-24T01:11:27;2.20;;;2.00;;
1206;SDS011;593;53.184;8.216;2023-08-24T01:13:38;1.90;;;1.80;;
1206;SDS011;593;53.184;8.216;2023-08-24T01:16:28;2.70;;;1.97;;
1206;SDS011;593;53.184;8.216;2023-08-24T01:18:59;1.10;;;1.00;;
1206;SDS011;593;53.184;8.216;2023-08-24T01:21:26;1.70;;;1.60;;
1206;SDS011;593;53.184;8.216;2023-08-24T01:26:49;2.60;;;1.70;;
1206;SDS011;593;53.184;8.216;2023-08-24T01:29:15;2.93;;;1.60;;
1206;SDS011;593;53.184;8.216;2023-08-24T01:31:41;1.93;;;1.80;;
1206;SDS011;593;53.184;8.216;2023-08-24T01:34:07;3.10;;;2.20;;
1206;SDS011;593;53.184;8.216;2023-08-24T01:36:32;2.60;;;1.70;;
1206;SDS011;593;53.184;8.216;2023-08-24T01:39:10;2.10;;;1.43;;
1206;SDS011;593;53.184;8.216;2023-08-24T01:41:39;2.20;;;1.30;;
1206;SDS011;593;53.184;8.216;2023-08-24T01:44:09;2.87;;;1.37;;
1206;SDS011;593;53.184;8.216;2023-08-24T01:46:38;1.67;;;1.43;;
1206;SDS011;593;53.184;8.216;2023-08-24T01:49:05;1.63;;;1.40;;
1206;SDS011;593;53.184;8.216;2023-08-24T01:51:33;2.90;;;1.13;;
1206;SDS011;593;53.184;8.216;2023-08-24T01:53:59;5.20;;;1.80;;
1206;SDS011;593;53.184;8.216;2023-08-24T01:56:25;1.40;;;1.30;;
1206;SDS011;593;53.184;8.216;2023-08-24T01:58:51;1.23;;;1.13;;
1206;SDS011;593;53.184;8.216;2023-08-24T02:01:19;2.17;;;1.60;;
1206;SDS011;593;53.184;8.216;2023-08-24T02:03:45;1.73;;;1.50;;
1206;SDS011;593;53.184;8.216;2023-08-24T02:06:10;1.87;;;1.57;;
1206;SDS011;593;53.184;8.216;2023-08-24T02:08:36;2.20;;;2.10;;
1206;SDS011;593;53.184;8.216;2023-08-24T02:11:01;2.33;;;2.13;;
1206;SDS011;593;53.184;8.216;2023-08-24T02:13:26;3.60;;;1.60;;
1206;SDS011;593;53.184;8.216;2023-08-24T02:16:00;2.77;;;2.47;;
1206;SDS011;593;53.184;8.216;2023-08-24T02:18:27;1.80;;;1.70;;
1206;SDS011;593;53.184;8.216;2023-08-24T02:20:52;4.80;;;2.23;;
1206;SDS011;593;53.184;8.216;2023-08-24T02:23:17;2.40;;;2.20;;
1206;SDS011;593;53.184;8.216;2023-08-24T02:25:43;2.10;;;1.90;;
1206;SDS011;593;53.184;8.216;2023-08-24T02:28:08;3.40;;;2.30;;
1206;SDS011;593;53.184;8.216;2023-08-24T02:30:36;2.83;;;1.50;;
1206;SDS011;593;53.184;8.216;2023-08-24T02:33:02;4.07;;;2.47;;
1206;SDS011;593;53.184;8.216;2023-08-24T02:35:28;3.33;;;1.77;;
1206;SDS011;593;53.184;8.216;2023-08-24T02:37:53;3.77;;;2.20;;
1206;SDS011;593;53.184;8.216;2023-08-24T02:40:21;3.13;;;2.57;;
1206;SDS011;593;53.184;8.216;2023-08-24T02:42:46;2.40;;;2.20;;
1206;SDS011;593;53.184;8.216;2023-08-24T02:45:11;4.37;;;2.63;;
1206;SDS011;593;53.184;8.216;2023-08-24T02:47:37;3.10;;;2.40;;
1206;SDS011;593;53.184;8.216;2023-08-24T02:50:02;2.40;;;2.30;;
1206;SDS011;593;53.184;8.216;2023-08-24T02:52:29;1.67;;;1.53;;
1206;SDS011;593;53.184;8.216;2023-08-24T02:54:54;3.60;;;2.03;;
1206;SDS011;593;53.184;8.216;2023-08-24T02:57:19;2.23;;;1.57;;
1206;SDS011;593;53.184;8.216;2023-08-24T02:59:45;1.90;;;1.80;;
1206;SDS011;593;53.184;8.216;2023-08-24T03:02:10;2.10;;;2.00;;
1206;SDS011;593;53.184;8.216;2023-08-24T03:04:35;3.90;;;1.93;;
1206;SDS011;593;53.184;8.216;2023-08-24T03:07:01;1.77;;;1.67;;
1206;SDS011;593;53.184;8.216;2023-08-24T03:09:26;2.03;;;1.93;;
1206;SDS011;593;53.184;8.216;2023-08-24T03:11:52;1.90;;;1.80;;
1206;SDS011;593;53.184;8.216;2023-08-24T03:14:17;2.40;;;2.20;;
1206;SDS011;593;53.184;8.216;2023-08-24T03:16:43;2.60;;;2.07;;
1206;SDS011;593;53.184;8.216;2023-08-24T03:19:09;2.40;;;2.13;;
1206;SDS011;593;53.184;8.216;2023-08-24T03:21:34;4.13;;;2.40;;
1206;SDS011;593;53.184;8.216;2023-08-24T03:24:00;2.57;;;2.40;;
1206;SDS011;593;53.184;8.216;2023-08-24T03:26:25;2.40;;;2.20;;
1206;SDS011;593;53.184;8.216;2023-08-24T03:28:50;2.47;;;2.30;;
1206;SDS011;593;53.184;8.216;2023-08-24T03:31:16;2.50;;;2.40;;
1206;SDS011;593;53.184;8.216;2023-08-24T03:33:41;2.37;;;2.20;;
1206;SDS011;593;53.184;8.216;2023-08-24T03:36:07;3.67;;;2.63;;
1206;SDS011;593;53.184;8.216;2023-08-24T03:38:32;4.00;;;3.70;;
1206;SDS011;593;53.184;8.216;2023-08-24T03:41:01;2.93;;;2.73;;
1206;SDS011;593;53.184;8.216;2023-08-24T03:43:28;4.70;;;3.00;;
1206;SDS011;593;53.184;8.216;2023-08-24T03:45:57;3.63;;;2.97;;
1206;SDS011;593;53.184;8.216;2023-08-24T03:48:23;5.20;;;3.47;;
1206;SDS011;593;53.184;8.216;2023-08-24T03:50:48;4.50;;;3.30;;
1206;SDS011;593;53.184;8.216;2023-08-24T03:53:13;3.53;;;3.27;;
1206;SDS011;593;53.184;8.216;2023-08-24T03:55:38;4.17;;;3.47;;
1206;SDS011;593;53.184;8.216;2023-08-24T03:58:04;4.00;;;3.60;;
1206;SDS011;593;53.184;8.216;2023-08-24T04:00:29;4.83;;;3.50;;
1206;SDS011;593;53.184;8.216;2023-08-24T04:02:55;3.20;;;3.00;;
1206;SDS011;593;53.184;8.216;2023-08-24T04:05:21;2.17;;;1.97;;
1206;SDS011;593;53.184;8.216;2023-08-24T04:07:46;2.50;;;2.30;;
1206;SDS011;593;53.184;8.216;2023-08-24T04:10:12;2.93;;;2.63;;
1206;SDS011;593;53.184;8.216;2023-08-24T04:12:37;2.60;;;2.40;;
1206;SDS011;593;53.184;8.216;2023-08-24T04:15:03;3.77;;;3.47;;
1206;SDS011;593;53.184;8.216;2023-08-24T04:17:29;3.63;;;2.60;;
1206;SDS011;593;53.184;8.216;2023-08-24T04:19:55;4.43;;;3.03;;
1206;SDS011;593;53.184;8.216;2023-08-24T04:22:20;3.10;;;2.67;;
1206;SDS011;593;53.184;8.216;2023-08-24T04:24:46;5.07;;;3.33;;
1206;SDS011;593;53.184;8.216;2023-08-24T04:27:11;5.83;;;3.17;;
1206;SDS011;593;53.184;8.216;2023-08-24T04:29:36;3.80;;;3.50;;
1206;SDS011;593;53.184;8.216;2023-08-24T04:32:02;4.53;;;4.13;;
1206;SDS011;593;53.184;8.216;2023-08-24T04:34:28;4.03;;;3.60;;
1206;SDS011;593;53.184;8.216;2023-08-24T04:36:53;5.53;;;5.03;;
1206;SDS011;593;53.184;8.216;2023-08-24T04:39:19;4.17;;;3.87;;
1206;SDS011;593;53.184;8.216;2023-08-24T04:41:45;4.20;;;3.90;;
1206;SDS011;593;53.184;8.216;2023-08-24T04:44:10;5.53;;;4.20;;
1206;SDS011;593;53.184;8.216;2023-08-24T04:46:36;3.70;;;3.40;;
1206;SDS011;593;53.184;8.216;2023-08-24T04:49:01;5.37;;;4.13;;
1206;SDS011;593;53.184;8.216;2023-08-24T04:51:26;5.53;;;4.27;;
1206;SDS011;593;53.184;8.216;2023-08-24T04:53:53;5.33;;;4.30;;
1206;SDS011;593;53.184;8.216;2023-08-24T04:56:21;4.17;;;3.87;;
1206;SDS011;593;53.184;8.216;2023-08-24T04:58:56;3.83;;;3.53;;
1206;SDS011;593;53.184;8.216;2023-08-24T05:01:23;4.40;;;4.00;;
1206;SDS011;593;53.184;8.216;2023-08-24T05:03:56;4.10;;;3.20;;
1206;SDS011;593;53.184;8.216;2023-08-24T05:06:22;4.03;;;3.60;;
1206;SDS011;593;53.184;8.216;2023-08-24T05:08:47;5.07;;;4.60;;
1206;SDS011;593;53.184;8.216;2023-08-24T05:13:42;3.60;;;3.30;;
1206;SDS011;593;53.184;8.216;2023-08-24T05:16:08;4.57;;;4.17;;
1206;SDS011;593;53.184;8.216;2023-08-24T05:18:34;4.13;;;3.73;;
1206;SDS011;593;53.184;8.216;2023-08-24T05:21:02;5.40;;;4.53;;
1206;SDS011;593;53.184;8.216;2023-08-24T05:23:32;5.97;;;3.73;;
1206;SDS011;593;53.184;8.216;2023-08-24T05:25:59;5.83;;;4.30;;
1206;SDS011;593;53.184;8.216;2023-08-24T05:28:28;4.50;;;3.60;;
1206;SDS011;593;53.184;8.216;2023-08-24T05:30:54;4.50;;;4.10;;
1206;SDS011;593;53.184;8.216;2023-08-24T05:33:21;3.83;;;3.50;;
1206;SDS011;593;53.184;8.216;2023-08-24T05:35:47;6.00;;;4.60;;
1206;SDS011;593;53.184;8.216;2023-08-24T05:38:14;6.00;;;4.20;;
1206;SDS011;593;53.184;8.216;2023-08-24T05:40:40;8.37;;;5.10;;
1206;SDS011;593;53.184;8.216;2023-08-24T05:43:07;5.63;;;5.03;;
1206;SDS011;593;53.184;8.216;2023-08-24T05:45:33;6.20;;;5.60;;
1206;SDS011;593;53.184;8.216;2023-08-24T05:47:58;8.37;;;6.97;;
1206;SDS011;593;53.184;8.216;2023-08-24T05:50:24;12.20;;;6.63;;
1206;SDS011;593;53.184;8.216;2023-08-24T05:52:49;8.47;;;7.37;;
1206;SDS011;593;53.184;8.216;2023-08-24T05:55:15;12.27;;;8.33;;
1206;SDS011;593;53.184;8.216;2023-08-24T05:57:44;14.23;;;7.90;;
1206;SDS011;593;53.184;8.216;2023-08-24T06:00:09;11.30;;;7.47;;
1206;SDS011;593;53.184;8.216;2023-08-24T06:02:36;8.47;;;7.00;;
1206;SDS011;593;53.184;8.216;2023-08-24T06:05:02;8.37;;;7.40;;
1206;SDS011;593;53.184;8.216;2023-08-24T06:07:28;7.60;;;7.00;;
1206;SDS011;593;53.184;8.216;2023-08-24T06:09:53;7.57;;;6.20;;
1206;SDS011;593;53.184;8.216;2023-08-24T06:12:18;8.93;;;7.07;;
1206;SDS011;593;53.184;8.216;2023-08-24T06:14:44;12.33;;;6.40;;
1206;SDS011;593;53.184;8.216;2023-08-24T06:17:09;6.70;;;6.00;;
1206;SDS011;593;53.184;8.216;2023-08-24T06:19:34;7.40;;;5.67;;
1206;SDS011;593;53.184;8.216;2023-08-24T06:22:00;6.00;;;5.37;;
1206;SDS011;593;53.184;8.216;2023-08-24T06:24:25;7.13;;;5.83;;
1206;SDS011;593;53.184;8.216;2023-08-24T06:26:50;6.37;;;5.77;;
1206;SDS011;593;53.184;8.216;2023-08-24T06:29:16;8.60;;;4.97;;
1206;SDS011;593;53.184;8.216;2023-08-24T06:31:41;8.00;;;5.87;;
1206;SDS011;593;53.184;8.216;2023-08-24T06:34:07;5.80;;;5.20;;
1206;SDS011;593;53.184;8.216;2023-08-24T06:36:32;8.00;;;5.90;;
1206;SDS011;593;53.184;8.216;2023-08-24T06:38:57;5.20;;;4.70;;
1206;SDS011;593;53.184;8.216;2023-08-24T06:41:23;4.60;;;3.90;;
1206;SDS011;593;53.184;8.216;2023-08-24T06:43:49;5.60;;;4.30;;
1206;SDS011;593;53.184;8.216;2023-08-24T06:46:14;5.40;;;4.07;;
1206;SDS011;593;53.184;8.216;2023-08-24T06:48:40;5.03;;;2.90;;
1206;SDS011;593;53.184;8.216;2023-08-24T06:51:08;4.43;;;3.33;;
1206;SDS011;593;53.184;8.216;2023-08-24T06:53:33;5.20;;;3.80;;
1206;SDS011;593;53.184;8.216;2023-08-24T06:55:59;4.13;;;3.73;;
1206;SDS011;593;53.184;8.216;2023-08-24T06:58:24;7.93;;;4.07;;
1206;SDS011;593;53.184;8.216;2023-08-24T07:00:50;3.90;;;3.50;;
1206;SDS011;593;53.184;8.216;2023-08-24T07:03:16;4.43;;;3.63;;
1206;SDS011;593;53.184;8.216;2023-08-24T07:05:43;3.57;;;2.57;;
1206;SDS011;593;53.184;8.216;2023-08-24T07:08:08;4.60;;;3.37;;
1206;SDS011;593;53.184;8.216;2023-08-24T07:10:34;3.60;;;3.27;;
1206;SDS011;593;53.184;8.216;2023-08-24T07:12:59;6.10;;;3.30;;
1206;SDS011;593;53.184;8.216;2023-08-24T07:15:25;3.13;;;2.93;;
1206;SDS011;593;53.184;8.216;2023-08-24T07:17:50;8.60;;;2.60;;
1206;SDS011;593;53.184;8.216;2023-08-24T07:20:15;3.90;;;2.93;;
1206;SDS011;593;53.184;8.216;2023-08-24T07:22:41;4.90;;;3.57;;
1206;SDS011;593;53.184;8.216;2023-08-24T07:25:07;4.43;;;2.80;;
1206;SDS011;593;53.184;8.216;2023-08-24T07:27:33;5.10;;;3.63;;
1206;SDS011;593;53.184;8.216;2023-08-24T07:29:59;3.00;;;2.67;;
1206;SDS011;593;53.184;8.216;2023-08-24T07:32:28;3.40;;;3.10;;
1206;SDS011;593;53.184;8.216;2023-08-24T07:34:54;2.93;;;2.57;;
1206;SDS011;593;53.184;8.216;2023-08-24T07:37:22;4.00;;;2.77;;
1206;SDS011;593;53.184;8.216;2023-08-24T07:39:47;3.47;;;2.30;;
1206;SDS011;593;53.184;8.216;2023-08-24T07:42:13;3.33;;;2.83;;
1206;SDS011;593;53.184;8.216;2023-08-24T07:44:38;5.60;;;3.07;;
1206;SDS011;593;53.184;8.216;2023-08-24T07:47:04;5.00;;;2.90;;
1206;SDS011;593;53.184;8.216;2023-08-24T07:49:29;4.27;;;3.30;;
1206;SDS011;593;53.184;8.216;2023-08-24T07:51:56;3.13;;;2.90;;
1206;SDS011;593;53.184;8.216;2023-08-24T07:54:23;5.53;;;3.20;;
1206;SDS011;593;53.184;8.216;2023-08-24T07:56:50;3.33;;;2.43;;
1206;SDS011;593;53.184;8.216;2023-08-24T07:59:16;3.33;;;2.80;;
1206;SDS011;593;53.184;8.216;2023-08-24T08:01:41;3.30;;;1.80;;
1206;SDS011;593;53.184;8.216;2023-08-24T08:04:07;8.60;;;3.47;;
1206;SDS011;593;53.184;8.216;2023-08-24T08:06:32;5.47;;;2.77;;
1206;SDS011;593;53.184;8.216;2023-08-24T08:08:59;5.90;;;2.77;;
1206;SDS011;593;53.184;8.216;2023-08-24T08:11:24;2.83;;;1.70;;
1206;SDS011;593;53.184;8.216;2023-08-24T08:13:49;4.93;;;2.00;;
1206;SDS011;593;53.184;8.216;2023-08-24T08:16:15;4.30;;;1.97;;
1206;SDS011;593;53.184;8.216;2023-08-24T08:18:40;9.73;;;2.43;;
1206;SDS011;593;53.184;8.216;2023-08-24T08:21:15;2.60;;;1.77;;
1206;SDS011;593;53.184;8.216;2023-08-24T08:23:44;3.07;;;1.97;;
1206;SDS011;593;53.184;8.216;2023-08-24T08:26:10;2.67;;;2.20;;
1206;SDS011;593;53.184;8.216;2023-08-24T08:28:36;3.20;;;1.90;;
1206;SDS011;593;53.184;8.216;2023-08-24T08:31:05;1.97;;;1.87;;
1206;SDS011;593;53.184;8.216;2023-08-24T08:33:31;2.13;;;1.50;;
1206;SDS011;593;53.184;8.216;2023-08-24T08:35:56;1.60;;;1.47;;
1206;SDS011;593;53.184;8.216;2023-08-24T08:38:22;3.87;;;1.90;;
1206;SDS011;593;53.184;8.216;2023-08-24T08:40:51;1.77;;;1.50;;
1206;SDS011;593;53.184;8.216;2023-08-24T08:43:19;1.40;;;1.30;;
1206;SDS011;593;53.184;8.216;2023-08-24T08:45:46;1.90;;;1.80;;
1206;SDS011;593;53.184;8.216;2023-08-24T08:48:14;5.33;;;2.30;;
1206;SDS011;593;53.184;8.216;2023-08-24T08:50:39;1.60;;;1.50;;
1206;SDS011;593;53.184;8.216;2023-08-24T08:53:05;3.20;;;1.90;;
1206;SDS011;593;53.184;8.216;2023-08-24T08:55:30;2.77;;;1.90;;
1206;SDS011;593;53.184;8.216;2023-08-24T08:57:56;4.30;;;1.97;;
1206;SDS011;593;53.184;8.216;2023-08-24T09:00:23;3.17;;;2.67;;
1206;SDS011;593;53.184;8.216;2023-08-24T09:02:49;1.70;;;1.60;;
1206;SDS011;593;53.184;8.216;2023-08-24T09:05:18;1.97;;;1.73;;
1206;SDS011;593;53.184;8.216;2023-08-24T09:07:44;3.00;;;1.90;;
1206;SDS011;593;53.184;8.216;2023-08-24T09:10:12;3.70;;;1.40;;
1206;SDS011;593;53.184;8.216;2023-08-24T09:12:37;3.83;;;1.30;;
1206;SDS011;593;53.184;8.216;2023-08-24T09:15:03;2.60;;;1.40;;
1206;SDS011;593;53.184;8.216;2023-08-24T09:17:29;2.57;;;1.90;;
1206;SDS011;593;53.184;8.216;2023-08-24T09:19:57;5.17;;;1.57;;
1206;SDS011;593;53.184;8.216;2023-08-24T09:22:23;2.53;;;2.33;;
1206;SDS011;593;53.184;8.216;2023-08-24T09:24:49;1.60;;;1.50;;
1206;SDS011;593;53.184;8.216;2023-08-24T09:27:19;2.30;;;1.77;;
1206;SDS011;593;53.184;8.216;2023-08-24T09:29:48;2.43;;;1.47;;
1206;SDS011;593;53.184;8.216;2023-08-24T09:32:24;1.67;;;1.57;;
1206;SDS011;593;53.184;8.216;2023-08-24T09:34:53;1.60;;;1.50;;
1206;SDS011;593;53.184;8.216;2023-08-24T09:37:19;3.67;;;1.50;;
1206;SDS011;593;53.184;8.216;2023-08-24T09:39:45;2.57;;;2.20;;
1206;SDS011;593;53.184;8.216;2023-08-24T09:42:12;3.93;;;2.30;;
1206;SDS011;593;53.184;8.216;2023-08-24T09:44:43;1.83;;;1.70;;
1206;SDS011;593;53.184;8.216;2023-08-24T09:47:09;4.23;;;1.97;;
1206;SDS011;593;53.184;8.216;2023-08-24T09:49:38;3.67;;;2.00;;
1206;SDS011;593;53.184;8.216;2023-08-24T09:52:07;1.87;;;1.73;;
1206;SDS011;593;53.184;8.216;2023-08-24T09:54:35;3.40;;;2.83;;
1206;SDS011;593;53.184;8.216;2023-08-24T09:57:02;3.73;;;3.43;;
1206;SDS011;593;53.184;8.216;2023-08-24T09:59:29;4.03;;;2.07;;
1206;SDS011;593;53.184;8.216;2023-08-24T10:01:56;2.90;;;2.30;;
1206;SDS011;593;53.184;8.216;2023-08-24T10:04:25;3.47;;;1.63;;
1206;SDS011;593;53.184;8.216;2023-08-24T10:07:07;2.37;;;2.17;;
1206;SDS011;593;53.184;8.216;2023-08-24T10:09:52;4.00;;;2.33;;
1206;SDS011;593;53.184;8.216;2023-08-24T10:12:24;3.47;;;2.87;;
1206;SDS011;593;53.184;8.216;2023-08-24T10:14:56;2.47;;;1.83;;
1206;SDS011;593;53.184;8.216;2023-08-24T10:17:30;4.75;;;2.90;;
1206;SDS011;593;53.184;8.216;2023-08-24T10:19:58;2.20;;;2.07;;
1206;SDS011;593;53.184;8.216;2023-08-24T10:22:26;2.53;;;2.30;;
1206;SDS011;593;53.184;8.216;2023-08-24T10:24:53;2.67;;;2.50;;
1206;SDS011;593;53.184;8.216;2023-08-24T10:27:20;3.17;;;2.40;;
1206;SDS011;593;53.184;8.216;2023-08-24T10:29:51;5.05;;;2.00;;
1206;SDS011;593;53.184;8.216;2023-08-24T10:32:16;3.07;;;2.87;;
1206;SDS011;593;53.184;8.216;2023-08-24T10:34:44;2.30;;;2.10;;
1206;SDS011;593;53.184;8.216;2023-08-24T10:37:11;3.05;;;2.13;;
1206;SDS011;593;53.184;8.216;2023-08-24T10:39:37;3.23;;;2.27;;
1206;SDS011;593;53.184;8.216;2023-08-24T10:42:10;2.23;;;2.13;;
1206;SDS011;593;53.184;8.216;2023-08-24T10:44:36;2.37;;;2.07;;
1206;SDS011;593;53.184;8.216;2023-08-24T10:47:06;2.30;;;2.00;;
1206;SDS011;593;53.184;8.216;2023-08-24T10:49:32;3.93;;;3.10;;
1206;SDS011;593;53.184;8.216;2023-08-24T10:51:57;3.07;;;2.77;;
1206;SDS011;593;53.184;8.216;2023-08-24T10:54:30;2.77;;;2.13;;
1206;SDS011;593;53.184;8.216;2023-08-24T10:56:56;3.97;;;3.57;;
1206;SDS011;593;53.184;8.216;2023-08-24T10:59:23;2.10;;;1.90;;
1206;SDS011;593;53.184;8.216;2023-08-24T11:04:18;3.80;;;2.30;;
1206;SDS011;593;53.184;8.216;2023-08-24T11:09:18;4.73;;;3.00;;
1206;SDS011;593;53.184;8.216;2023-08-24T11:11:54;2.23;;;2.00;;
1206;SDS011;593;53.184;8.216;2023-08-24T11:14:30;3.47;;;2.60;;
1206;SDS011;593;53.184;8.216;2023-08-24T11:17:00;3.20;;;2.93;;
1206;SDS011;593;53.184;8.216;2023-08-24T11:19:27;4.53;;;2.87;;
1206;SDS011;593;53.184;8.216;2023-08-24T11:21:53;3.17;;;2.90;;
1206;SDS011;593;53.184;8.216;2023-08-24T11:24:18;2.63;;;2.17;;
1206;SDS011;593;53.184;8.216;2023-08-24T11:26:45;3.87;;;3.60;;
1206;SDS011;593;53.184;8.216;2023-08-24T11:29:11;3.30;;;3.00;;
1206;SDS011;593;53.184;8.216;2023-08-24T11:31:37;3.43;;;3.10;;
1206;SDS011;593;53.184;8.216;2023-08-24T11:34:03;3.40;;;2.80;;
1206;SDS011;593;53.184;8.216;2023-08-24T11:36:40;3.50;;;3.17;;
1206;SDS011;593;53.184;8.216;2023-08-24T11:39:13;4.63;;;2.93;;
1206;SDS011;593;53.184;8.216;2023-08-24T11:41:40;2.97;;;2.80;;
1206;SDS011;593;53.184;8.216;2023-08-24T11:44:06;2.60;;;2.40;;
1206;SDS011;593;53.184;8.216;2023-08-24T11:46:31;3.47;;;3.17;;
1206;SDS011;593;53.184;8.216;2023-08-24T11:48:57;3.10;;;2.80;;
1206;SDS011;593;53.184;8.216;2023-08-24T11:51:23;2.70;;;2.50;;
1206;SDS011;593;53.184;8.216;2023-08-24T11:53:49;2.73;;;2.53;;
1206;SDS011;593;53.184;8.216;2023-08-24T11:56:14;3.90;;;2.80;;
1206;SDS011;593;53.184;8.216;2023-08-24T11:58:42;3.53;;;2.80;;
1206;SDS011;593;53.184;8.216;2023-08-24T12:01:09;2.80;;;2.70;;
1206;SDS011;593;53.184;8.216;2023-08-24T12:03:36;2.70;;;2.50;;
1206;SDS011;593;53.184;8.216;2023-08-24T12:06:09;3.20;;;2.90;;
1206;SDS011;593;53.184;8.216;2023-08-24T12:08:37;4.70;;;3.20;;
1206;SDS011;593;53.184;8.216;2023-08-24T12:11:09;4.43;;;3.03;;
1206;SDS011;593;53.184;8.216;2023-08-24T12:13:35;4.23;;;3.00;;
1206;SDS011;593;53.184;8.216;2023-08-24T12:16:00;3.17;;;2.97;;
1206;SDS011;593;53.184;8.216;2023-08-24T12:18:26;3.07;;;2.60;;
1206;SDS011;593;53.184;8.216;2023-08-24T12:20:52;3.90;;;3.23;;
1206;SDS011;593;53.184;8.216;2023-08-24T12:23:17;3.23;;;2.93;;
1206;SDS011;593;53.184;8.216;2023-08-24T12:25:43;2.17;;;2.00;;
1206;SDS011;593;53.184;8.216;2023-08-24T12:28:15;4.07;;;2.90;;
1206;SDS011;593;53.184;8.216;2023-08-24T12:30:48;2.40;;;2.13;;
1206;SDS011;593;53.184;8.216;2023-08-24T12:33:24;2.43;;;2.23;;
1206;SDS011;593;53.184;8.216;2023-08-24T12:35:50;3.70;;;2.47;;
1206;SDS011;593;53.184;8.216;2023-08-24T12:38:16;2.93;;;2.73;;
1206;SDS011;593;53.184;8.216;2023-08-24T12:40:42;3.87;;;3.43;;
1206;SDS011;593;53.184;8.216;2023-08-24T12:43:07;2.53;;;2.40;;
1206;SDS011;593;53.184;8.216;2023-08-24T12:45:32;3.10;;;2.90;;
1206;SDS011;593;53.184;8.216;2023-08-24T12:47:58;3.03;;;2.80;;
1206;SDS011;593;53.184;8.216;2023-08-24T12:50:23;3.53;;;3.17;;
1206;SDS011;593;53.184;8.216;2023-08-24T12:52:48;5.30;;;2.70;;
1206;SDS011;593;53.184;8.216;2023-08-24T12:55:14;2.53;;;2.40;;
1206;SDS011;593;53.184;8.216;2023-08-24T12:57:40;3.63;;;3.33;;
1206;SDS011;593;53.184;8.216;2023-08-24T13:00:05;2.93;;;2.67;;
1206;SDS011;593;53.184;8.216;2023-08-24T13:02:33;4.20;;;3.00;;
1206;SDS011;593;53.184;8.216;2023-08-24T13:04:58;3.43;;;3.13;;
1206;SDS011;593;53.184;8.216;2023-08-24T13:07:26;3.27;;;2.70;;
1206;SDS011;593;53.184;8.216;2023-08-24T13:09:51;2.50;;;2.30;;
1206;SDS011;593;53.184;8.216;2023-08-24T13:12:16;4.93;;;3.13;;
1206;SDS011;593;53.184;8.216;2023-08-24T13:14:42;3.90;;;3.17;;
1206;SDS011;593;53.184;8.216;2023-08-24T13:17:07;3.00;;;2.33;;
1206;SDS011;593;53.184;8.216;2023-08-24T13:19:32;3.60;;;3.30;;
1206;SDS011;593;53.184;8.216;2023-08-24T13:21:58;2.67;;;2.47;;
1206;SDS011;593;53.184;8.216;2023-08-24T13:24:23;2.70;;;2.43;;
1206;SDS011;593;53.184;8.216;2023-08-24T13:26:49;2.57;;;2.37;;
1206;SDS011;593;53.184;8.216;2023-08-24T13:29:14;3.20;;;3.00;;
1206;SDS011;593;53.184;8.216;2023-08-24T13:31:39;2.73;;;2.53;;
1206;SDS011;593;53.184;8.216;2023-08-24T13:34:04;2.20;;;2.10;;
1206;SDS011;593;53.184;8.216;2023-08-24T13:36:32;3.20;;;3.00;;
1206;SDS011;593;53.184;8.216;2023-08-24T13:39:00;3.33;;;2.80;;
1206;SDS011;593;53.184;8.216;2023-08-24T13:41:26;2.57;;;2.20;;
1206;SDS011;593;53.184;8.216;2023-08-24T13:43:51;2.77;;;2.57;;
1206;SDS011;593;53.184;8.216;2023-08-24T13:46:16;3.13;;;2.83;;
1206;SDS011;593;53.184;8.216;2023-08-24T13:48:42;2.67;;;2.53;;
1206;SDS011;593;53.184;8.216;2023-08-24T13:51:07;2.87;;;2.67;;
1206;SDS011;593;53.184;8.216;2023-08-24T13:53:33;2.10;;;2.00;;
1206;SDS011;593;53.184;8.216;2023-08-24T13:55:59;2.87;;;2.60;;
1206;SDS011;593;53.184;8.216;2023-08-24T13:58:24;3.27;;;3.00;;
1206;SDS011;593;53.184;8.216;2023-08-24T14:00:56;2.57;;;2.37;;
1206;SDS011;593;53.184;8.216;2023-08-24T14:03:22;2.93;;;2.53;;
1206;SDS011;593;53.184;8.216;2023-08-24T14:05:47;2.40;;;2.20;;
1206;SDS011;593;53.184;8.216;2023-08-24T14:08:15;2.40;;;2.30;;
1206;SDS011;593;53.184;8.216;2023-08-24T14:10:40;3.60;;;2.40;;
1206;SDS011;593;53.184;8.216;2023-08-24T14:13:09;3.87;;;2.60;;
1206;SDS011;593;53.184;8.216;2023-08-24T14:15:34;2.40;;;2.30;;
1206;SDS011;593;53.184;8.216;2023-08-24T14:18:00;3.13;;;2.13;;
1206;SDS011;593;53.184;8.216;2023-08-24T14:20:25;2.93;;;2.50;;
1206;SDS011;593;53.184;8.216;2023-08-24T14:22:50;2.20;;;2.00;;
1206;SDS011;593;53.184;8.216;2023-08-24T14:25:16;2.23;;;2.03;;
1206;SDS011;593;53.184;8.216;2023-08-24T14:27:42;2.50;;;2.23;;
1206;SDS011;593;53.184;8.216;2023-08-24T14:30:07;2.40;;;2.20;;
1206;SDS011;593;53.184;8.216;2023-08-24T14:32:33;2.63;;;2.43;;
1206;SDS011;593;53.184;8.216;2023-08-24T14:34:59;2.20;;;2.00;;
1206;SDS011;593;53.184;8.216;2023-08-24T14:37:24;3.00;;;2.80;;
1206;SDS011;593;53.184;8.216;2023-08-24T14:39:50;2.20;;;2.10;;
1206;SDS011;593;53.184;8.216;2023-08-24T14:42:15;2.53;;;2.33;;
1206;SDS011;593;53.184;8.216;2023-08-24T14:44:41;2.70;;;2.60;;
1206;SDS011;593;53.184;8.216;2023-08-24T14:47:06;3.90;;;2.90;;
1206;SDS011;593;53.184;8.216;2023-08-24T14:49:32;2.80;;;2.53;;
1206;SDS011;593;53.184;8.216;2023-08-24T14:51:57;5.70;;;2.63;;
1206;SDS011;593;53.184;8.216;2023-08-24T14:54:23;2.37;;;2.27;;
1206;SDS011;593;53.184;8.216;2023-08-24T14:56:48;2.53;;;2.17;;
1206;SDS011;593;53.184;8.216;2023-08-24T14:59:14;3.90;;;3.60;;
1206;SDS011;593;53.184;8.216;2023-08-24T15:01:42;2.50;;;2.40;;
1206;SDS011;593;53.184;8.216;2023-08-24T15:04:08;3.80;;;2.33;;
1206;SDS011;593;53.184;8.216;2023-08-24T15:06:33;2.43;;;2.23;;
1206;SDS011;593;53.184;8.216;2023-08-24T15:08:58;3.43;;;2.60;;
1206;SDS011;593;53.184;8.216;2023-08-24T15:11:24;2.33;;;2.23;;
1206;SDS011;593;53.184;8.216;2023-08-24T15:13:49;3.73;;;3.53;;
1206;SDS011;593;53.184;8.216;2023-08-24T15:16:14;3.00;;;2.80;;
1206;SDS011;593;53.184;8.216;2023-08-24T15:18:40;3.23;;;2.80;;
1206;SDS011;593;53.184;8.216;2023-08-24T15:21:05;2.43;;;2.27;;
1206;SDS011;593;53.184;8.216;2023-08-24T15:23:31;3.40;;;2.90;;
1206;SDS011;593;53.184;8.216;2023-08-24T15:25:57;3.03;;;2.73;;
1206;SDS011;593;53.184;8.216;2023-08-24T15:28:24;2.37;;;2.13;;
1206;SDS011;593;53.184;8.216;2023-08-24T15:30:50;2.93;;;2.73;;
1206;SDS011;593;53.184;8.216;2023-08-24T15:33:17;2.70;;;2.20;;
1206;SDS011;593;53.184;8.216;2023-08-24T15:35:43;2.90;;;2.60;;